createdAt,value
2023-02-15T00:02:01.402Z,10.80
2023-02-15T00:05:00.764Z,10.80
2023-02-15T00:07:27.923Z,10.80
2023-02-15T00:09:54.889Z,10.80
2023-02-15T00:12:21.785Z,10.80
2023-02-15T00:14:49.090Z,10.80
2023-02-15T00:17:16.036Z,10.80
2023-02-15T00:19:43.047Z,10.70
2023-02-15T00:22:10.277Z,10.70
2023-02-15T00:24:37.207Z,10.70
2023-02-15T00:27:04.197Z,10.70
2023-02-15T00:29:31.204Z,10.60
2023-02-15T00:31:58.179Z,10.60
2023-02-15T00:34:27.832Z,10.60
2023-02-15T00:36:57.498Z,10.60
2023-02-15T00:39:25.357Z,10.50
2023-02-15T00:41:52.260Z,10.50
2023-02-15T00:44:19.277Z,10.50
2023-02-15T00:46:46.283Z,10.50
2023-02-15T00:49:13.237Z,10.50
2023-02-15T00:51:40.489Z,10.50
2023-02-15T00:54:07.695Z,10.40
2023-02-15T00:56:34.860Z,10.40
2023-02-15T00:59:02.061Z,10.40
2023-02-15T01:01:29.077Z,10.40
2023-02-15T01:03:56.149Z,10.40
2023-02-15T01:06:23.177Z,10.40
2023-02-15T01:08:50.105Z,10.40
2023-02-15T01:11:23.250Z,10.40
2023-02-15T01:13:57.089Z,10.40
2023-02-15T01:16:26.103Z,10.40
2023-02-15T01:18:53.432Z,10.40
2023-02-15T01:21:23.110Z,10.40
2023-02-15T01:23:50.621Z,10.40
2023-02-15T01:26:18.011Z,10.30
2023-02-15T01:28:45.698Z,10.40
2023-02-15T01:31:16.186Z,10.30
2023-02-15T01:33:46.967Z,10.30
2023-02-15T01:36:14.431Z,10.30
2023-02-15T01:38:42.347Z,10.30
2023-02-15T01:41:23.841Z,10.30
2023-02-15T01:43:54.733Z,10.30
2023-02-15T01:46:26.990Z,10.30
2023-02-15T01:48:59.423Z,10.20
2023-02-15T01:51:30.571Z,10.30
2023-02-15T01:54:16.274Z,10.20
2023-02-15T01:56:43.352Z,10.20
2023-02-15T01:59:15.891Z,10.20
2023-02-15T02:01:44.324Z,10.20
2023-02-15T02:04:49.566Z,10.20
2023-02-15T02:07:21.851Z,10.20
2023-02-15T02:09:49.349Z,10.20
2023-02-15T02:12:18.975Z,10.20
2023-02-15T02:14:48.315Z,10.20
2023-02-15T02:17:24.384Z,10.20
2023-02-15T02:19:57.770Z,10.20
2023-02-15T02:22:45.907Z,10.20
2023-02-15T02:25:25.127Z,10.20
2023-02-15T02:28:10.926Z,10.20
2023-02-15T02:30:43.855Z,10.20
2023-02-15T02:33:21.321Z,10.20
2023-02-15T02:36:13.504Z,10.20
2023-02-15T02:38:58.584Z,10.20
2023-02-15T02:41:57.329Z,10.20
2023-02-15T02:44:28.845Z,10.10
2023-02-15T02:46:58.844Z,10.10
2023-02-15T02:49:37.381Z,10.10
2023-02-15T02:52:07.721Z,10.00
2023-02-15T02:54:37.035Z,10.00
2023-02-15T02:57:10.115Z,10.00
2023-02-15T02:59:45.120Z,10.00
2023-02-15T03:02:17.030Z,9.90
2023-02-15T03:04:50.496Z,10.00
2023-02-15T03:07:23.034Z,9.90
2023-02-15T03:09:54.080Z,10.00
2023-02-15T03:12:25.683Z,9.90
2023-02-15T03:15:03.333Z,9.90
2023-02-15T03:17:34.619Z,9.90
2023-02-15T03:20:09.689Z,10.00
2023-02-15T03:22:59.907Z,10.00
2023-02-15T03:25:38.974Z,10.00
2023-02-15T03:28:13.923Z,10.00
2023-02-15T03:30:44.556Z,10.00
2023-02-15T03:33:14.084Z,10.00
2023-02-15T03:35:51.007Z,10.00
2023-02-15T03:38:24.123Z,10.00
2023-02-15T03:41:12.994Z,10.00
2023-02-15T03:43:39.925Z,10.00
2023-02-15T03:46:14.402Z,10.00
2023-02-15T03:48:45.855Z,10.00
2023-02-15T03:51:34.727Z,10.00
2023-02-15T03:54:44.083Z,10.00
2023-02-15T03:57:33.293Z,10.00
2023-02-15T04:00:20.448Z,10.00
2023-02-15T04:03:06.226Z,10.00
2023-02-15T04:05:33.227Z,9.90
2023-02-15T04:08:00.210Z,9.90
2023-02-15T04:10:46.608Z,9.90
2023-02-15T04:13:13.654Z,9.80
2023-02-15T04:15:59.423Z,9.80
2023-02-15T04:18:45.431Z,9.70
2023-02-15T04:21:30.872Z,9.60
2023-02-15T04:24:16.316Z,9.60
2023-02-15T04:26:43.291Z,9.50
2023-02-15T04:29:10.222Z,9.50
2023-02-15T04:31:37.413Z,9.50
2023-02-15T04:34:04.498Z,9.50
2023-02-15T04:36:31.519Z,9.50
2023-02-15T04:38:58.503Z,9.50
2023-02-15T04:41:25.449Z,9.50
2023-02-15T04:43:52.357Z,9.40
2023-02-15T04:46:19.402Z,9.50
2023-02-15T04:48:46.483Z,9.50
2023-02-15T04:51:13.395Z,9.50
2023-02-15T04:53:40.352Z,9.50
2023-02-15T04:56:07.287Z,9.40
2023-02-15T04:58:34.390Z,9.40
2023-02-15T05:01:01.527Z,9.40
2023-02-15T05:03:28.500Z,9.40
2023-02-15T05:05:55.638Z,9.40
2023-02-15T05:08:22.642Z,9.40
2023-02-15T05:10:50.062Z,9.30
2023-02-15T05:13:17.062Z,9.30
2023-02-15T05:15:51.759Z,9.30
2023-02-15T05:18:20.196Z,9.20
2023-02-15T05:20:47.703Z,9.20
2023-02-15T05:23:14.947Z,9.20
2023-02-15T05:26:00.724Z,9.20
2023-02-15T05:28:28.983Z,9.10
2023-02-15T05:31:10.356Z,9.10
2023-02-15T05:33:37.692Z,9.00
2023-02-15T05:36:05.850Z,8.90
2023-02-15T05:38:33.717Z,8.90
2023-02-15T05:41:00.835Z,8.90
2023-02-15T05:43:28.030Z,8.80
2023-02-15T05:45:56.038Z,8.80
2023-02-15T05:48:26.862Z,8.80
2023-02-15T05:51:15.026Z,8.80
2023-02-15T05:53:42.067Z,8.80
2023-02-15T05:56:11.263Z,8.70
2023-02-15T05:58:40.518Z,8.80
2023-02-15T06:01:15.876Z,8.80
2023-02-15T06:03:43.176Z,8.80
2023-02-15T06:06:10.573Z,8.80
2023-02-15T06:08:38.736Z,8.90
2023-02-15T06:11:06.355Z,8.90
2023-02-15T06:13:37.898Z,8.90
2023-02-15T06:16:05.951Z,8.90
2023-02-15T06:18:33.094Z,8.90
2023-02-15T06:21:00.091Z,8.90
2023-02-15T06:23:27.103Z,8.90
2023-02-15T06:25:54.109Z,8.80
2023-02-15T06:28:21.120Z,8.80
2023-02-15T06:30:48.257Z,8.80
2023-02-15T06:33:15.326Z,8.90
2023-02-15T06:35:42.422Z,8.80
2023-02-15T06:38:09.437Z,8.80
2023-02-15T06:40:36.367Z,8.80
2023-02-15T06:43:03.326Z,8.90
2023-02-15T06:45:30.557Z,8.90
2023-02-15T06:47:57.526Z,8.90
2023-02-15T06:50:24.473Z,8.90
2023-02-15T06:52:57.009Z,8.90
2023-02-15T06:55:24.029Z,8.90
2023-02-15T06:57:51.223Z,8.90
2023-02-15T07:00:19.320Z,8.90
2023-02-15T07:02:46.413Z,8.90
2023-02-15T07:05:13.541Z,8.80
2023-02-15T07:07:40.712Z,8.80
2023-02-15T07:10:07.996Z,8.80
2023-02-15T07:12:43.857Z,8.80
2023-02-15T07:15:11.884Z,8.80
2023-02-15T07:17:38.919Z,8.90
2023-02-15T07:20:12.766Z,8.90
2023-02-15T07:22:39.886Z,8.90
2023-02-15T07:25:09.575Z,9.00
2023-02-15T07:27:37.143Z,9.00
2023-02-15T07:30:05.997Z,9.00
2023-02-15T07:32:34.067Z,9.00
2023-02-15T07:35:01.364Z,9.00
2023-02-15T07:37:29.237Z,9.10
2023-02-15T07:39:56.205Z,9.10
2023-02-15T07:42:23.292Z,9.10
2023-02-15T07:44:50.425Z,9.10
2023-02-15T07:47:17.658Z,9.20
2023-02-15T07:49:45.899Z,9.20
2023-02-15T07:52:12.909Z,9.20
2023-02-15T07:54:39.845Z,9.30
2023-02-15T07:57:06.834Z,9.30
2023-02-15T07:59:33.813Z,9.40
2023-02-15T08:02:00.837Z,9.40
2023-02-15T08:04:27.811Z,9.40
2023-02-15T08:06:55.748Z,9.50
2023-02-15T08:09:23.194Z,9.60
2023-02-15T08:11:50.380Z,9.60
2023-02-15T08:14:19.612Z,9.70
2023-02-15T08:16:55.951Z,9.70
2023-02-15T08:19:25.268Z,9.70
2023-02-15T08:21:55.530Z,9.80
2023-02-15T08:24:24.601Z,9.90
2023-02-15T08:26:52.640Z,9.90
2023-02-15T08:29:25.065Z,9.90
2023-02-15T08:31:55.673Z,10.00
2023-02-15T08:34:22.775Z,10.00
2023-02-15T08:36:49.744Z,10.00
2023-02-15T08:39:16.932Z,10.10
2023-02-15T08:41:46.032Z,10.10
2023-02-15T08:44:13.357Z,10.20
2023-02-15T08:46:42.601Z,10.20
2023-02-15T08:49:12.636Z,10.20
2023-02-15T08:51:39.738Z,10.30
2023-02-15T08:54:10.361Z,10.30
2023-02-15T08:56:39.321Z,10.40
2023-02-15T08:59:12.415Z,10.40
2023-02-15T09:01:39.626Z,10.40
2023-02-15T09:04:09.802Z,10.50
2023-02-15T09:06:38.462Z,10.50
2023-02-15T09:09:05.965Z,10.50
2023-02-15T09:11:36.631Z,10.60
2023-02-15T09:14:10.031Z,10.60
2023-02-15T09:16:38.797Z,10.60
2023-02-15T09:19:06.996Z,10.70
2023-02-15T09:21:36.711Z,10.70
2023-02-15T09:24:07.311Z,10.70
2023-02-15T09:26:37.023Z,10.70
2023-02-15T09:29:04.909Z,10.80
2023-02-15T09:31:35.071Z,10.80
2023-02-15T09:34:02.732Z,10.80
2023-02-15T09:36:36.001Z,10.90
2023-02-15T09:39:11.141Z,10.90
2023-02-15T09:41:44.205Z,10.90
2023-02-15T09:44:41.074Z,11.00
2023-02-15T09:47:25.819Z,11.00
2023-02-15T09:50:30.076Z,11.00
2023-02-15T09:53:35.319Z,11.10
2023-02-15T09:56:08.196Z,11.10
2023-02-15T09:59:06.042Z,11.20
2023-02-15T10:02:14.389Z,11.20
2023-02-15T10:04:50.728Z,11.30
2023-02-15T10:07:38.401Z,11.30
2023-02-15T10:10:24.319Z,11.30
2023-02-15T10:12:58.940Z,11.40
2023-02-15T10:15:44.652Z,11.40
2023-02-15T10:18:30.140Z,11.50
2023-02-15T10:21:28.284Z,11.50
2023-02-15T10:24:26.716Z,11.50
2023-02-15T10:27:03.701Z,11.60
2023-02-15T10:29:39.399Z,11.70
2023-02-15T10:32:24.512Z,11.70
2023-02-15T10:35:06.432Z,11.80
2023-02-15T10:37:48.157Z,11.90
2023-02-15T10:40:37.940Z,11.90
2023-02-15T10:43:31.458Z,11.90
2023-02-15T10:46:31.062Z,12.00
2023-02-15T10:49:28.015Z,12.10
2023-02-15T10:52:24.283Z,12.10
2023-02-15T10:55:15.914Z,12.20
2023-02-15T10:58:23.565Z,12.20
2023-02-15T11:01:05.851Z,12.20
2023-02-15T11:04:09.304Z,12.30
2023-02-15T11:06:40.525Z,12.30
2023-02-15T11:09:13.988Z,12.40
2023-02-15T11:11:45.823Z,12.40
2023-02-15T11:14:32.975Z,12.50
2023-02-15T11:17:18.304Z,12.50
2023-02-15T11:19:58.201Z,12.60
2023-02-15T11:22:25.715Z,12.70
2023-02-15T11:24:53.147Z,12.70
2023-02-15T11:27:33.832Z,12.80
2023-02-15T11:30:13.554Z,12.80
2023-02-15T11:32:51.148Z,12.90
2023-02-15T11:35:27.570Z,12.90
2023-02-15T11:38:06.308Z,12.90
2023-02-15T11:40:50.350Z,12.90
2023-02-15T11:43:44.097Z,13.00
2023-02-15T11:46:13.371Z,13.00
2023-02-15T11:48:40.728Z,13.10
2023-02-15T11:51:14.669Z,13.10
2023-02-15T11:53:41.629Z,13.20
2023-02-15T11:56:18.404Z,13.20
2023-02-15T11:59:08.256Z,13.20
2023-02-15T12:01:40.967Z,13.30
2023-02-15T12:04:11.665Z,13.40
2023-02-15T12:06:45.348Z,13.40
2023-02-15T12:09:35.806Z,13.40
2023-02-15T12:12:36.179Z,13.40
2023-02-15T12:15:06.194Z,13.40
2023-02-15T12:17:53.212Z,13.50
2023-02-15T12:20:20.142Z,13.50
2023-02-15T12:23:04.634Z,13.60
2023-02-15T12:25:40.499Z,13.60
2023-02-15T12:28:21.444Z,13.70
2023-02-15T12:30:48.675Z,13.80
2023-02-15T12:33:26.339Z,13.80
2023-02-15T12:36:19.995Z,13.90
2023-02-15T12:39:07.108Z,13.90
2023-02-15T12:41:35.251Z,13.90
2023-02-15T12:44:20.731Z,14.00
2023-02-15T12:46:59.087Z,13.90
2023-02-15T12:49:27.274Z,13.90
2023-02-15T12:51:56.263Z,14.00
2023-02-15T12:54:30.747Z,14.00
2023-02-15T12:56:59.010Z,14.00
2023-02-15T12:59:26.653Z,14.10
2023-02-15T13:01:57.085Z,14.20
2023-02-15T13:04:29.421Z,14.20
2023-02-15T13:07:00.579Z,14.30
2023-02-15T13:09:39.454Z,14.40
2023-02-15T13:12:24.443Z,14.40
2023-02-15T13:14:53.739Z,14.40
2023-02-15T13:17:30.351Z,14.50
2023-02-15T13:20:03.518Z,14.60
2023-02-15T13:22:43.209Z,14.70
2023-02-15T13:25:20.357Z,14.70
2023-02-15T13:27:53.477Z,14.80
2023-02-15T13:30:33.569Z,14.80
2023-02-15T13:33:05.784Z,14.90
2023-02-15T13:35:45.587Z,14.90
2023-02-15T13:38:21.460Z,15.10
2023-02-15T13:41:04.963Z,15.10
2023-02-15T13:43:59.808Z,15.20
2023-02-15T13:46:33.428Z,15.30
2023-02-15T13:49:25.185Z,15.50
2023-02-15T13:52:04.324Z,15.70
2023-02-15T13:55:28.855Z,16.20
2023-02-15T13:58:08.038Z,16.80
2023-02-15T14:00:45.850Z,17.40
2023-02-15T14:03:27.789Z,17.90
2023-02-15T14:06:20.346Z,18.40
2023-02-15T14:09:18.278Z,18.80
2023-02-15T14:11:57.442Z,19.20
2023-02-15T14:14:24.367Z,19.70
2023-02-15T14:17:22.551Z,20.00
2023-02-15T14:19:55.264Z,20.20
2023-02-15T14:22:48.503Z,20.50
2023-02-15T14:25:27.148Z,20.70
2023-02-15T14:28:18.446Z,21.00
2023-02-15T14:30:51.548Z,21.10
2023-02-15T14:33:36.106Z,21.20
2023-02-15T14:36:07.417Z,21.50
2023-02-15T14:39:00.450Z,21.90
2023-02-15T14:41:45.435Z,22.20
2023-02-15T14:44:31.077Z,22.70
2023-02-15T14:47:28.172Z,23.10
2023-02-15T14:49:55.322Z,23.30
2023-02-15T14:52:22.320Z,23.40
2023-02-15T14:54:49.419Z,23.50
2023-02-15T14:57:16.303Z,23.60
2023-02-15T14:59:53.817Z,23.70
2023-02-15T15:02:27.580Z,23.70
2023-02-15T15:04:54.462Z,23.60
2023-02-15T15:07:36.748Z,23.40
2023-02-15T15:10:03.632Z,22.90
2023-02-15T15:12:33.508Z,22.50
2023-02-15T15:15:02.066Z,22.00
2023-02-15T15:17:35.193Z,21.60
2023-02-15T15:20:03.762Z,21.10
2023-02-15T15:22:32.932Z,20.80
2023-02-15T15:25:05.111Z,20.50
2023-02-15T15:27:55.054Z,20.30
2023-02-15T15:30:22.010Z,20.30
2023-02-15T15:32:54.988Z,20.30
2023-02-15T15:35:49.803Z,20.50
2023-02-15T15:38:57.971Z,20.90
2023-02-15T15:41:43.357Z,21.10
2023-02-15T15:44:29.982Z,21.10
2023-02-15T15:47:02.949Z,21.20
2023-02-15T15:49:33.607Z,21.20
2023-02-15T15:52:14.635Z,21.20
2023-02-15T15:54:42.654Z,21.00
2023-02-15T15:57:29.657Z,20.90
2023-02-15T16:00:00.565Z,20.80
2023-02-15T16:02:28.325Z,20.90
2023-02-15T16:04:55.340Z,21.00
2023-02-15T16:07:27.073Z,21.00
2023-02-15T16:10:03.977Z,20.90
2023-02-15T16:12:39.337Z,20.60
2023-02-15T16:15:17.232Z,20.20
2023-02-15T16:17:48.524Z,19.80
2023-02-15T16:20:23.325Z,19.50
2023-02-15T16:23:13.510Z,19.10
2023-02-15T16:25:58.884Z,18.80
2023-02-15T16:28:25.949Z,18.50
2023-02-15T16:31:13.639Z,18.30
2023-02-15T16:33:42.601Z,18.10
2023-02-15T16:36:27.387Z,17.90
2023-02-15T16:38:54.343Z,17.70
2023-02-15T16:41:31.059Z,17.50
2023-02-15T16:44:08.703Z,17.40
2023-02-15T16:46:42.513Z,17.20
2023-02-15T16:49:22.738Z,17.10
2023-02-15T16:52:02.035Z,17.00
2023-02-15T16:54:30.891Z,16.90
2023-02-15T16:56:58.532Z,16.80
2023-02-15T16:59:48.769Z,16.70
2023-02-15T17:02:40.521Z,16.70
2023-02-15T17:05:18.474Z,16.60
2023-02-15T17:08:05.655Z,16.50
2023-02-15T17:10:37.296Z,16.50
2023-02-15T17:13:15.203Z,16.40
2023-02-15T17:16:07.380Z,16.30
2023-02-15T17:18:46.026Z,16.30
2023-02-15T17:21:27.684Z,16.20
2023-02-15T17:24:01.257Z,16.10
2023-02-15T17:26:32.376Z,16.10
2023-02-15T17:29:37.573Z,16.00
2023-02-15T17:32:06.417Z,15.90
2023-02-15T17:34:44.417Z,15.90
2023-02-15T17:37:28.703Z,15.80
2023-02-15T17:39:57.445Z,15.80
2023-02-15T17:42:24.416Z,15.70
2023-02-15T17:44:51.481Z,15.70
2023-02-15T17:47:22.081Z,15.60
2023-02-15T17:49:52.597Z,15.60
2023-02-15T17:52:19.809Z,15.60
2023-02-15T17:55:05.380Z,15.50
2023-02-15T17:57:32.599Z,15.50
2023-02-15T18:00:18.254Z,15.50
2023-02-15T18:03:04.906Z,15.50
2023-02-15T18:05:50.706Z,15.40
2023-02-15T18:08:42.049Z,15.30
2023-02-15T18:11:29.181Z,15.30
2023-02-15T18:14:01.200Z,15.20
2023-02-15T18:16:33.263Z,15.20
2023-02-15T18:19:00.926Z,15.20
2023-02-15T18:21:27.874Z,15.10
2023-02-15T18:23:55.602Z,15.10
2023-02-15T18:26:24.922Z,15.00
2023-02-15T18:28:52.558Z,15.00
2023-02-15T18:31:20.792Z,15.00
2023-02-15T18:33:50.617Z,15.00
2023-02-15T18:36:32.658Z,14.90
2023-02-15T18:39:08.511Z,14.90
2023-02-15T18:41:35.928Z,14.90
2023-02-15T18:44:02.861Z,14.80
2023-02-15T18:46:29.873Z,14.80
2023-02-15T18:48:56.796Z,14.70
2023-02-15T18:51:24.202Z,14.70
2023-02-15T18:53:52.940Z,14.70
2023-02-15T18:56:22.444Z,14.60
2023-02-15T18:58:49.588Z,14.60
2023-02-15T19:01:19.561Z,14.60
2023-02-15T19:03:48.790Z,14.60
2023-02-15T19:06:19.089Z,14.50
2023-02-15T19:08:48.875Z,14.50
2023-02-15T19:11:25.670Z,14.50
2023-02-15T19:13:53.899Z,14.40
2023-02-15T19:16:27.402Z,14.40
2023-02-15T19:18:54.646Z,14.40
2023-02-15T19:21:22.548Z,14.40
2023-02-15T19:23:55.329Z,14.30
2023-02-15T19:26:23.092Z,14.30
2023-02-15T19:28:51.126Z,14.30
2023-02-15T19:31:18.317Z,14.20
2023-02-15T19:33:45.897Z,14.20
2023-02-15T19:36:18.295Z,14.20
2023-02-15T19:38:50.410Z,14.10
2023-02-15T19:41:30.813Z,14.10
2023-02-15T19:43:59.064Z,14.10
2023-02-15T19:46:26.533Z,14.10
2023-02-15T19:48:54.139Z,14.00
2023-02-15T19:51:23.271Z,14.00
2023-02-15T19:53:51.853Z,13.90
2023-02-15T19:56:25.026Z,13.90
2023-02-15T19:58:52.305Z,13.90
2023-02-15T20:01:20.222Z,13.80
2023-02-15T20:03:47.337Z,13.80
2023-02-15T20:06:15.606Z,13.80
2023-02-15T20:08:43.966Z,13.80
2023-02-15T20:11:12.908Z,13.70
2023-02-15T20:13:40.598Z,13.70
2023-02-15T20:16:10.626Z,13.70
2023-02-15T20:18:38.456Z,13.60
2023-02-15T20:21:11.055Z,13.60
2023-02-15T20:23:38.091Z,13.60
2023-02-15T20:26:25.120Z,13.60
2023-02-15T20:28:52.602Z,13.60
2023-02-15T20:31:21.579Z,13.60
2023-02-15T20:33:49.724Z,13.50
2023-02-15T20:36:21.165Z,13.50
2023-02-15T20:38:49.002Z,13.50
2023-02-15T20:41:39.141Z,13.50
2023-02-15T20:44:27.026Z,13.50
2023-02-15T20:46:56.767Z,13.40
2023-02-15T20:49:25.660Z,13.40
2023-02-15T20:51:54.534Z,13.40
2023-02-15T20:54:24.021Z,13.40
2023-02-15T20:56:52.042Z,13.40
2023-02-15T20:59:20.501Z,13.40
2023-02-15T21:01:48.389Z,13.30
2023-02-15T21:04:31.430Z,13.30
2023-02-15T21:06:59.878Z,13.30
2023-02-15T21:09:27.248Z,13.30
2023-02-15T21:11:56.479Z,13.30
2023-02-15T21:14:26.357Z,13.30
2023-02-15T21:16:53.383Z,13.20
2023-02-15T21:19:22.499Z,13.20
2023-02-15T21:21:52.400Z,13.20
2023-02-15T21:24:27.758Z,13.20
2023-02-15T21:26:56.121Z,13.10
2023-02-15T21:29:26.023Z,13.20
2023-02-15T21:31:53.164Z,13.20
2023-02-15T21:34:21.102Z,13.20
2023-02-15T21:36:50.700Z,13.20
2023-02-15T21:39:32.110Z,13.20
2023-02-15T21:42:17.773Z,13.10
2023-02-15T21:45:03.086Z,13.10
2023-02-15T21:47:50.155Z,13.10
2023-02-15T21:50:41.406Z,13.10
2023-02-15T21:53:19.832Z,13.10
2023-02-15T21:55:46.810Z,13.00
2023-02-15T21:58:21.060Z,13.00
2023-02-15T22:00:48.949Z,13.00
2023-02-15T22:03:16.056Z,13.00
2023-02-15T22:05:43.083Z,12.90
2023-02-15T22:08:14.230Z,12.90
2023-02-15T22:10:42.167Z,12.80
2023-02-15T22:13:13.661Z,12.80
2023-02-15T22:15:41.870Z,12.70
2023-02-15T22:18:23.718Z,12.70
2023-02-15T22:20:51.587Z,12.60
2023-02-15T22:23:19.048Z,12.60
2023-02-15T22:25:58.089Z,12.50
2023-02-15T22:28:43.386Z,12.50
2023-02-15T22:31:14.202Z,12.50
2023-02-15T22:33:41.484Z,12.40
2023-02-15T22:36:22.751Z,12.40
2023-02-15T22:38:49.778Z,12.30
2023-02-15T22:41:17.854Z,12.30
2023-02-15T22:43:46.359Z,12.20
2023-02-15T22:46:22.529Z,12.20
2023-02-15T22:48:49.940Z,12.10
2023-02-15T22:51:22.018Z,12.10
2023-02-15T22:53:51.763Z,12.10
2023-02-15T22:56:31.747Z,12.10
2023-02-15T22:59:05.851Z,12.00
2023-02-15T23:01:35.402Z,12.00
2023-02-15T23:04:03.931Z,12.10
2023-02-15T23:06:32.067Z,12.00
2023-02-15T23:09:00.690Z,12.00
2023-02-15T23:11:28.060Z,12.00
2023-02-15T23:13:55.371Z,12.00
2023-02-15T23:16:22.374Z,12.00
2023-02-15T23:18:50.133Z,12.00
2023-02-15T23:21:21.440Z,11.90
2023-02-15T23:23:50.884Z,12.00
2023-02-15T23:26:22.079Z,11.90
2023-02-15T23:28:50.499Z,11.90
2023-02-15T23:31:23.093Z,11.80
2023-02-15T23:33:52.530Z,11.80
2023-02-15T23:36:34.833Z,11.80
2023-02-15T23:39:56.185Z,11.80
2023-02-15T23:42:31.912Z,11.80
2023-02-15T23:45:02.211Z,11.80
2023-02-15T23:47:51.762Z,11.70
2023-02-15T23:50:22.038Z,11.70
2023-02-15T23:52:50.487Z,11.70
2023-02-15T23:55:18.128Z,11.70
2023-02-15T23:57:45.559Z,11.70
